Burns Pinion Ridge Reserve, California Weather observations

Data are for 10 minute period ending at time listed.
 Day   Time   Solar   Ave.   Ave.  Ave.  Vector  Max.   Baro.   Total    
  of    of     Rad.   Air    Rel.  Wind   Wind   Wind  Press.  Precip.   
Year   Day            Temp.  Hum.  Speed  Dir.   Gust                    
2014   (PST)  Kw/m2    F      %     mph   deg.    mph    mb.     in.     
-------------------------------------------------------------------------
 329    8:10   0.27   55.0    13    0.0   343     0.3   889.1    0.00 
 329    8:20   0.30   55.2    13    0.4   337     2.0   889.1    0.00 
 329    8:30   0.33   55.7    13    1.1   324     2.6   889.0    0.00 
 329    8:40   0.36   55.4    13    1.6   321     3.4   888.9    0.00 
 329    8:50   0.39   55.4    12    1.6   314     3.0   888.9    0.00 
 329    9:00   0.41   56.7    12    0.5   292     2.9   888.8    0.00 
 329    9:10   0.44   57.9    12    2.4   183     5.8   888.7    0.00 
 329    9:20   0.46   57.5    12    2.9   185     5.5   888.6    0.00 
 329    9:30   0.48   58.4    11    2.4   175     5.8   888.6    0.00 
 329    9:40   0.51   58.7    11    2.8   189     6.4   888.6    0.00 
 329    9:50   0.53   59.0    11    3.2   180     7.9   888.5    0.00 
 329   10:00   0.54   58.8    11    3.3   203     8.3   888.4    0.00 
 329   10:10   0.56   58.7    10    5.6   213    10.7   888.4    0.00 
 329   10:20   0.58   58.0    10    4.6   217    11.0   888.4    0.00 
 329   10:30   0.59   58.7    10    5.3   201     8.6   888.3    0.00 
 329   10:40   0.60   59.8    10    2.7   202     7.6   888.2    0.00 
 329   10:50   0.61   59.8    10    3.6   222     7.5   888.2    0.00 
 329   11:00   0.61   60.2    10    3.7   193     9.5   888.0    0.00 
 329   11:10   0.62   59.9    10    3.7   206     8.0   888.0    0.00 
 329   11:20   0.63   60.7     9    1.4   219     5.5   887.9    0.00 
 329   11:30   0.61   61.8     8    3.2   148     9.0   887.7    0.00 
 329   11:40   0.63   60.6     9    2.3    83     6.3   887.5    0.00 
 329   11:50   0.63   60.9     9    3.1   174     5.9   887.4    0.00 
 329   12:00   0.63   61.3     8    3.1   129     7.6   887.2    0.00 
 329   12:10   0.61   61.7     8    4.4   171     8.6   887.0    0.00 
 329   12:20   0.61   62.2     8    3.9   206     8.2   886.9    0.00 
 329   12:30   0.60   63.0     8    3.6   176     8.4   886.7    0.00 
 329   12:40   0.59   63.5     8    3.1   198     7.5   886.6    0.00 
 329   12:50   0.58   63.0     8    2.9   182     7.3   886.5    0.00 
 329   13:00   0.57   63.5     8    3.5   160     6.7   886.5    0.00 
 329   13:10   0.55   63.7     8    2.7   117     5.2   886.5    0.00 
 329   13:20   0.54   62.8     9    2.8    72     5.9   886.3    0.00 
 329   13:30   0.52   63.6     9    2.7    96     9.7   886.3    0.00 
 329   13:40   0.50   63.7    10    2.5    52     6.8   886.3    0.00 
 329   13:50   0.47   63.7    10    1.9    62     5.7   886.1    0.00 
 329   14:00   0.45   64.2    10    2.3   156     7.4   886.1    0.00 
 329   14:10   0.42   65.0    10    4.3   162    10.2   886.0    0.00 
 329   14:20   0.40   64.5    10    3.2   145     9.6   886.0    0.00 
 329   14:30   0.37   64.2    10    1.4    94     4.8   885.9    0.00 
 329   14:40   0.34   64.3    10    2.5   139     5.0   885.8    0.00 
 329   14:50   0.31   63.1    10    2.8   112     5.1   885.8    0.00 
 329   15:00   0.28   64.7    10    1.8    58     6.6   885.8    0.00 
 329   15:10   0.26   63.9    10    1.9    54     5.2   885.8    0.00 
 329   15:20   0.23   63.5    10    3.3    59     6.4   885.8    0.00 
 329   15:30   0.19   62.5    10    4.1    47     7.2   885.8    0.00 
 329   15:40   0.17   62.0     9    4.6    45     9.7   885.8    0.00 
 329   15:50   0.14   60.6    10    3.7    51     7.2   885.7    0.00 
 329   16:00   0.10   59.9    10    2.3    48     5.8   885.6    0.00 
 329   16:10   0.06   58.6    10    1.9    53     4.7   885.5    0.00 
 329   16:20   0.03   57.7     9    1.9    63     3.5   885.4    0.00 
 329   16:30   0.01   56.3    10    1.6    68     3.5   885.4    0.00 
 329   16:40   0.00   54.1    10    0.7    85     2.1   885.3    0.00 
 329   16:50   0.00   50.6    11    1.9    76     2.7   885.3    0.00 
 329   17:00   0.00   48.8    12    1.5    63     2.3   885.3    0.00 
 329   17:10   0.00   47.9    12    0.7    55     2.1   885.4    0.00 
 329   17:20   0.00   46.8    12    0.1    48     1.2   885.5    0.00 
 329   17:30   0.00   45.2    13    2.0    49     3.5   885.6    0.00 
 329   17:40   0.00   47.8    12    3.6    47     5.6   885.8    0.00 
 329   17:50   0.00   52.2    11    3.7    42     7.2   885.9    0.00 
 329   18:00   0.00   53.2    11    3.2    38     6.5   886.0    0.00 
 329   18:10   0.00   53.7    11    3.7    40     8.0   886.1    0.00 
 329   18:20   0.00   53.7    11    3.3    38     7.3   886.2    0.00 
 329   18:30   0.00   53.2    11    3.8     2     8.6   886.2    0.00 
 329   18:40   0.00   50.6    12    2.0     0     7.0   886.2    0.00 
 329   18:50   0.00   51.8    12    5.2    44     7.5   886.3    0.00 
 329   19:00   0.00   53.9    11    5.4    38     8.1   886.3    0.00 
 329   19:10   0.00   53.9    11    6.1    42     9.1   886.3    0.00 
 329   19:20   0.00   54.1    11    5.8    47     8.6   886.2    0.00 
 329   19:30   0.00   53.8    11    4.7    46     8.9   886.1    0.00 
 329   19:40   0.00   54.1    10    2.6    44     6.7   886.1    0.00 
 329   19:50   0.00   54.5    10    2.5    29     6.8   886.1    0.00 
 329   20:00   0.00   53.2    10    1.3    10     5.0   886.1    0.00 
 329   20:10   0.00   51.5    11    3.2   338     5.3   886.0    0.00 
 329   20:20   0.00   49.9    11    2.4   354     4.0   886.0    0.00 
 329   20:30   0.00   48.9    12    0.9     7     3.6   886.0    0.00 
 329   20:40   0.00   48.0    12    1.0   304     3.5   886.0    0.00 
 329   20:50   0.00   50.6    13    3.5     7    10.1   886.0    0.00 
 329   21:00   0.00   56.5    11    5.5    33     9.8   885.9    0.00 
 329   21:10   0.00   56.9    11    3.8    14     9.6   885.9    0.00 
 329   21:20   0.00   54.4    12    2.5    38     6.5   885.8    0.00 
 329   21:30   0.00   53.9    12    3.0   349     7.1   885.8    0.00 
 329   21:40   0.00   55.1    14    5.9   340    11.4   885.8    0.00 
 329   21:50   0.00   57.5    13    5.1   322    11.3   885.7    0.00 
 329   22:00   0.00   57.8    14    7.5   345    15.9   885.8    0.00 
 329   22:10   0.00   59.3    13    5.2    29     8.3   885.8    0.00 
 329   22:20   0.00   58.8    13    4.1    35     8.5   885.8    0.00 
 329   22:30   0.00   58.9    13    3.9    22     8.8   885.8    0.00 
 329   22:40   0.00   57.6    12    4.3    10     7.2   885.8    0.00 
 329   22:50   0.00   54.2    13    3.4     2     8.8   885.8    0.00 
 329   23:00   0.00   55.9    14    5.4   340    11.2   885.8    0.00 
 329   23:10   0.00   53.2    14    0.8   312     4.5   885.8    0.00 
 329   23:20   0.00   52.3    16    3.9   348    11.4   885.7    0.00 
 329   23:30   0.00   57.0    15    7.1   350    11.9   885.8    0.00 
 329   23:40   0.00   58.9    15    8.1   343    13.4   885.7    0.00 
 329   23:50   0.00   60.0    14    8.9   352    14.2   885.7    0.00 
 330    0:00   0.00   60.1    14    8.2   348    13.2   885.6    0.00 
 330    0:10   0.00   59.8    15    8.1   352    10.9   885.6    0.00 
 330    0:20   0.00   59.3    14    7.1    31    10.9   885.7    0.00 
 330    0:30   0.00   56.3    14    6.0    50     9.1   885.7    0.00 
 330    0:40   0.00   54.0    13    5.5    61     7.5   885.7    0.00 
 330    0:50   0.00   52.9    13    5.5    54     7.2   885.6    0.00 
 330    1:00   0.00   52.4    13    5.7    52     7.2   885.6    0.00 
 330    1:10   0.00   52.4    13    6.6    51     8.8   885.5    0.00 
 330    1:20   0.00   53.2    14    7.0    46     9.8   885.4    0.00 
 330    1:30   0.00   56.8    14    5.7    22    11.2   885.4    0.00 
 330    1:40   0.00   56.6    15    7.9   350    13.2   885.3    0.00 
 330    1:50   0.00   59.5    15    9.2   346    14.4   885.3    0.00 
 330    2:00   0.00   60.2    15    9.2   346    14.6   885.2    0.00 
 330    2:10   0.00   60.4    15    9.2   348    14.0   885.2    0.00 
 330    2:20   0.00   60.6    15    7.9     0    13.6   885.2    0.00 
 330    2:30   0.00   58.3    14    4.8    53     7.8   885.3    0.00 
 330    2:40   0.00   55.3    14    5.0    57     8.6   885.3    0.00 
 330    2:50   0.00   54.6    14    3.5    63     6.9   885.3    0.00 
 330    3:00   0.00   53.9    14    4.6    62     7.1   885.3    0.00 
 330    3:10   0.00   54.7    14    4.9    67     6.6   885.3    0.00 
 330    3:20   0.00   54.1    15    4.4    56     6.6   885.3    0.00 
 330    3:30   0.00   54.2    15    4.9    42     7.5   885.3    0.00 
 330    3:40   0.00   55.2    15    5.5    42     7.7   885.3    0.00 
 330    3:50   0.00   56.2    15    5.8    21     9.4   885.3    0.00 
 330    4:00   0.00   57.6    15    4.5    21    10.1   885.2    0.00 
 330    4:10   0.00   56.8    15    3.7     1     7.5   885.3    0.00 
 330    4:20   0.00   55.0    17    6.1   349     9.7   885.1    0.00 
 330    4:30   0.00   56.3    17    7.1   350    10.6   885.1    0.00 
 330    4:40   0.00   57.2    17    7.2   349    11.2   885.1    0.00 
 330    4:50   0.00   57.9    16    7.4   350    12.3   885.1    0.00 
 330    5:00   0.00   57.9    16    7.1   344    11.1   885.1    0.00 
 330    5:10   0.00   57.3    16    7.3   343    10.2   885.1    0.00 
 330    5:20   0.00   57.0    16    5.9   348     8.3   885.0    0.00 
 330    5:30   0.00   56.5    17    5.5   351     8.3   885.0    0.00 
 330    5:40   0.00   56.7    17    5.7   350    10.2   885.1    0.00 
 330    5:50   0.00   56.4    17    4.1   348     6.3   885.2    0.00 
 330    6:00   0.00   55.2    18    4.6     1     7.2   885.3    0.00 
 330    6:10   0.00   56.7    17    5.1    32     8.7   885.3    0.00 
 330    6:20   0.00   56.9    16    4.9    27     7.8   885.4    0.00 
 330    6:30   0.00   57.0    16    4.9    17     7.7   885.4    0.00 
 330    6:40   0.01   55.5    17    6.0   341     9.0   885.4    0.00 
 330    6:50   0.01   56.5    17    5.9   335    11.0   885.5    0.00 
 330    7:00   0.02   57.6    16    5.7    23    12.9   885.6    0.00 
 330    7:10   0.07   58.1    16    4.5    46     8.2   885.7    0.00 
 330    7:20   0.11   58.6    15    4.6    52     6.7   885.7    0.00 
 330    7:30   0.14   59.9    14    5.4    16     9.9   885.6    0.00 
 330    7:40   0.17   62.9    13    4.5    26     8.2   885.7    0.00 
 330    7:50   0.20   61.6    13    5.8    48     8.2   885.7    0.00 
 330    8:00   0.23   62.6    13    4.7    38     7.5   885.8    0.00 

Return to Burns Pinion Ridge Reserve graphs page.


Western Regional Climate Center,wrcc@dri.edu